Terminal Aerodrome Forecast
Issued by NWS

Home | Current Version | Previous Version | Text Only | Print | Product List | Glossary On
Versions: 1 2 3 4 5 6 7 8 9 10 11 12 13 14 15 16 17 18 19 20 21 22 23 24 25 26
000
FTUS44 KBMX 221700
TAFMGM
TAF
KMGM 221733Z 2218/2318 09006KT P6SM VCTS SCT020CB BKN035
      TEMPO 2219/2223 4SM SHRA BKN015
     FM230300 00000KT P6SM BKN250
     FM230900 00000KT 6SM BR SCT007 SCT150
      TEMPO 2310/2312 4SM BR BKN007
     FM231500 22004KT P6SM SCT015 BKN030=

USA.gov is the U.S. government's official web portal to all federal, state and local government web resources and services.